CheckWX is a tool to help pilots better visualize weather data.  It is not intended as a substitute for an official pre-flight weather briefing.

19:55:23 UTC

KSJS TAF
Big Sandy Regional Airport
Prestonsburg, Kentucky, USA
KSJS 032337Z 0400/0424 VRB03KT P6SM SCT150 SCT250 FM041600 23005KT P6SM VCTS SCT050CB BKN100

Jun-4@
00:00 UTC

Jun-4 @ 00:00 UTC

Jun-4@
16:00 UTC

Jun-4 @ 16:00 UTC

TAF KSJS 032337Z 0400/0424 VRB03KT P6SM SCT150 SCT250

Expired

Wind
  • Variable at 3 KTS
Cloud Levels
  • Scattered at 15,000' AGL
  • Scattered at 25,000' AGL

Jun-4@
16:00 UTC

Jun-4 @ 16:00 UTC

Jun-5@
00:00 UTC

Jun-5 @ 00:00 UTC

FM041600 23005KT P6SM VCTS SCT050CB BKN100

From

From Standard forecast or significant change

Wind
  • 230° at 5 KTS
Conditions
Area Thunderstorm
Cloud Levels
  • Scattered at 5,000' AGL
  • Broken at 10,000' AGL